TimeEDT,TemperatureF,Dew PointF,Humidity,Sea Level PressureIn,VisibilityMPH,Wind Direction,Wind SpeedMPH,Gust SpeedMPH,PrecipitationIn,Events,Conditions,WindDirDegrees,DateUTC
12:53 AM,32.0,27.0,82,30.30,10.0,South,6.9,-,N/A,,Overcast,190,2013-03-11 04:53:00
1:53 AM,32.0,28.0,85,30.30,10.0,South,4.6,-,N/A,,Overcast,190,2013-03-11 05:53:00
2:53 AM,33.1,28.9,85,30.28,10.0,South,10.4,-,N/A,,Overcast,180,2013-03-11 06:53:00
3:53 AM,34.0,30.0,85,30.26,10.0,SSW,6.9,-,N/A,,Overcast,200,2013-03-11 07:53:00
4:53 AM,34.0,30.0,85,30.23,10.0,South,8.1,-,N/A,,Overcast,190,2013-03-11 08:53:00
5:53 AM,34.0,30.9,89,30.23,10.0,South,8.1,-,N/A,,Overcast,180,2013-03-11 09:53:00
6:53 AM,35.1,30.9,85,30.24,10.0,South,6.9,-,N/A,,Overcast,190,2013-03-11 10:53:00
7:53 AM,36.0,32.0,86,30.26,10.0,Calm,Calm,-,N/A,,Overcast,0,2013-03-11 11:53:00
8:53 AM,37.0,32.0,82,30.27,10.0,SSE,3.5,-,N/A,,Overcast,160,2013-03-11 12:53:00
9:53 AM,37.9,33.1,83,30.24,10.0,South,9.2,-,N/A,,Overcast,170,2013-03-11 13:53:00
10:53 AM,39.0,33.1,79,30.23,10.0,South,10.4,21.9,N/A,,Mostly Cloudy,180,2013-03-11 14:53:00
11:36 AM,39.2,33.8,81,30.22,10.0,South,15.0,21.9,N/A,,Mostly Cloudy,180,2013-03-11 15:36:00
11:53 AM,39.9,33.1,77,30.22,10.0,South,13.8,20.7,N/A,,Mostly Cloudy,180,2013-03-11 15:53:00
12:43 PM,41.0,33.8,76,30.20,10.0,South,13.8,-,N/A,,Mostly Cloudy,180,2013-03-11 16:43:00
12:53 PM,41.0,34.0,76,30.21,10.0,SSE,13.8,-,N/A,,Mostly Cloudy,160,2013-03-11 16:53:00
1:16 PM,42.8,33.8,70,30.20,10.0,South,15.0,20.7,N/A,,Mostly Cloudy,170,2013-03-11 17:16:00
1:53 PM,42.1,33.1,70,30.20,10.0,South,15.0,21.9,N/A,,Mostly Cloudy,180,2013-03-11 17:53:00
2:53 PM,42.1,33.1,70,30.19,10.0,South,15.0,-,N/A,,Mostly Cloudy,180,2013-03-11 18:53:00
3:53 PM,41.0,33.1,73,30.19,10.0,South,17.3,23.0,N/A,,Mostly Cloudy,170,2013-03-11 19:53:00
4:53 PM,39.0,34.0,82,30.17,10.0,South,18.4,23.0,N/A,,Overcast,170,2013-03-11 20:53:00
5:27 PM,37.4,33.8,87,30.16,10.0,South,13.8,23.0,N/A,,Overcast,170,2013-03-11 21:27:00
5:53 PM,37.9,34.0,86,30.17,10.0,South,11.5,20.7,N/A,,Overcast,180,2013-03-11 21:53:00
6:53 PM,37.9,34.0,86,30.18,10.0,South,10.4,-,N/A,,Overcast,180,2013-03-11 22:53:00
7:34 PM,37.4,35.6,93,30.18,10.0,South,9.2,18.4,N/A,,Overcast,180,2013-03-11 23:34:00
7:53 PM,37.9,35.1,89,30.18,10.0,South,10.4,17.3,N/A,,Overcast,180,2013-03-11 23:53:00
8:53 PM,37.9,36.0,93,30.19,8.0,South,8.1,-,N/A,,Overcast,180,2013-03-12 00:53:00
9:53 PM,37.9,37.0,97,30.18,7.0,South,10.4,-,N/A,,Overcast,180,2013-03-12 01:53:00
10:53 PM,39.0,37.0,93,30.16,7.0,South,9.2,-,N/A,,Overcast,180,2013-03-12 02:53:00
11:48 PM,39.2,37.4,93,30.15,4.0,South,12.7,20.7,N/A,,Overcast,180,2013-03-12 03:48:00
11:53 PM,39.0,37.9,96,30.16,4.0,South,12.7,-,N/A,,Overcast,190,2013-03-12 03:53:00